Promise City, IA (52583)

11:43 AM CST on February 10, 2016 (GMT -0600)
farm | | Change Station
CLOSE
Current Station
Personal Weather Station
Location: Chariton, IA
Elevation: 971 ft
Nearby Weather Stations

Elev 971 ft 40.93 °N, 93.24 °W | Updated 1 second ago

Snow
Snow
18.5 °F
Feels Like 18 °F
N
2.8
Wind Variable Wind from East
Gusts 6.0 mph

Today
High -- | Low -- °F
--% Chance of Precip.
Yesterday
High -- | Low -- °F
Precip. -- in
Pressure 30.08 in
Visibility 5.0 miles
Clouds Overcast 100 ft
Windchill 18 °F
Dew Point 18 °F
Humidity 88%
Rainfall 0.00 in
Snow Depth Not available.
7:13 AM 5:40 PM
Waxing Crescent, 6% visible
METAR KTVK 101730Z AUTO 00000KT 5SM -SN OVC001 M08/M09 A3008 RMK AO2
Pressure 30.08 in
Visibility 5.0 miles
Clouds Overcast 100 ft
Windchill 18 °F
Dew Point 18 °F
Humidity 88%
Rainfall 0.00 in
Snow Depth Not available.
7:13 AM 5:40 PM
Waxing Crescent, 6% visible
METAR KTVK 101730Z AUTO 00000KT 5SM -SN OVC001 M08/M09 A3008 RMK AO2

10-Day Weather Forecast

Almanac

Astronomy

Feb. 10, 2016 Rise Set
Actual Time
Civil Twilight
Nautical Twilight
Astronomical Twilight
Moon
Length of Visible Light
Length of Day
Tomorrow will be .
, % of the Moon is Illuminated

Today's Extremes

State Highs State Lows

Community

WunderPhotos

Upload Photos

1,891,899 photos uploaded!

WunderBlog® & News

Nearby

Air Quality

  Air Quality AQ Index Pollutant
Not available.

Snow Depth

Station Depth Elevation

Earthquake Activity

City Distance Mag. Time & Date
Minimum magnitude displayed is 2.5.

Coastal Water Temperatures

Place Temperature

Stations

Nearby Weather Stations

Station Location Temp. Windchill Dew Point Humidity Wind Precip. Elev Updated Type
                   

Watches & Warnings

There are currently no watches in effect.